sensor_id;sensor_type;location;lat;lon;timestamp;P1;durP1;ratioP1;P2;durP2;ratioP2
28766;SDS011;15921;52.034;20.650;2023-10-19T00:02:12;77.47;;;32.67;;
28766;SDS011;15921;52.034;20.650;2023-10-19T00:04:40;70.60;;;32.00;;
28766;SDS011;15921;52.034;20.650;2023-10-19T00:07:06;65.35;;;28.58;;
28766;SDS011;15921;52.034;20.650;2023-10-19T00:09:33;55.10;;;24.15;;
28766;SDS011;15921;52.034;20.650;2023-10-19T00:12:04;61.95;;;25.23;;
28766;SDS011;15921;52.034;20.650;2023-10-19T00:14:35;59.95;;;26.25;;
28766;SDS011;15921;52.034;20.650;2023-10-19T00:17:00;59.47;;;25.60;;
28766;SDS011;15921;52.034;20.650;2023-10-19T00:19:31;55.28;;;23.95;;
28766;SDS011;15921;52.034;20.650;2023-10-19T00:22:04;54.75;;;24.85;;
28766;SDS011;15921;52.034;20.650;2023-10-19T00:24:34;60.53;;;24.83;;
28766;SDS011;15921;52.034;20.650;2023-10-19T00:27:00;52.05;;;24.27;;
28766;SDS011;15921;52.034;20.650;2023-10-19T00:29:35;52.90;;;23.65;;
28766;SDS011;15921;52.034;20.650;2023-10-19T00:32:05;54.60;;;23.50;;
28766;SDS011;15921;52.034;20.650;2023-10-19T00:34:37;61.08;;;25.95;;
28766;SDS011;15921;52.034;20.650;2023-10-19T00:37:03;61.95;;;27.45;;
28766;SDS011;15921;52.034;20.650;2023-10-19T00:39:34;71.25;;;29.35;;
28766;SDS011;15921;52.034;20.650;2023-10-19T00:42:08;62.55;;;27.48;;
28766;SDS011;15921;52.034;20.650;2023-10-19T00:44:34;65.82;;;26.48;;
28766;SDS011;15921;52.034;20.650;2023-10-19T00:47:22;60.97;;;26.02;;
28766;SDS011;15921;52.034;20.650;2023-10-19T00:49:49;53.33;;;24.55;;
28766;SDS011;15921;52.034;20.650;2023-10-19T00:52:15;61.03;;;25.40;;
28766;SDS011;15921;52.034;20.650;2023-10-19T00:54:45;57.75;;;26.13;;
28766;SDS011;15921;52.034;20.650;2023-10-19T00:57:15;56.60;;;25.30;;
28766;SDS011;15921;52.034;20.650;2023-10-19T00:59:45;58.58;;;24.05;;
28766;SDS011;15921;52.034;20.650;2023-10-19T01:02:15;50.97;;;23.35;;
28766;SDS011;15921;52.034;20.650;2023-10-19T01:04:46;50.53;;;22.92;;
28766;SDS011;15921;52.034;20.650;2023-10-19T01:07:20;53.20;;;22.35;;
28766;SDS011;15921;52.034;20.650;2023-10-19T01:09:58;52.95;;;24.38;;
28766;SDS011;15921;52.034;20.650;2023-10-19T01:12:26;53.03;;;23.38;;
28766;SDS011;15921;52.034;20.650;2023-10-19T01:20:11;43.63;;;20.92;;
28766;SDS011;15921;52.034;20.650;2023-10-19T01:22:48;54.83;;;20.80;;
28766;SDS011;15921;52.034;20.650;2023-10-19T01:25:15;43.20;;;20.13;;
28766;SDS011;15921;52.034;20.650;2023-10-19T01:27:41;45.58;;;20.75;;
28766;SDS011;15921;52.034;20.650;2023-10-19T01:30:07;47.45;;;20.95;;
28766;SDS011;15921;52.034;20.650;2023-10-19T01:32:35;42.25;;;19.25;;
28766;SDS011;15921;52.034;20.650;2023-10-19T01:35:00;42.78;;;19.38;;
28766;SDS011;15921;52.034;20.650;2023-10-19T01:37:26;39.28;;;18.88;;
28766;SDS011;15921;52.034;20.650;2023-10-19T01:39:52;36.60;;;16.85;;
28766;SDS011;15921;52.034;20.650;2023-10-19T01:42:17;39.35;;;18.70;;
28766;SDS011;15921;52.034;20.650;2023-10-19T01:44:43;33.40;;;16.60;;
28766;SDS011;15921;52.034;20.650;2023-10-19T01:47:08;36.00;;;17.60;;
28766;SDS011;15921;52.034;20.650;2023-10-19T01:49:34;40.97;;;17.17;;
28766;SDS011;15921;52.034;20.650;2023-10-19T01:52:00;41.20;;;17.80;;
28766;SDS011;15921;52.034;20.650;2023-10-19T01:54:26;43.22;;;17.42;;
28766;SDS011;15921;52.034;20.650;2023-10-19T01:56:52;35.83;;;17.38;;
28766;SDS011;15921;52.034;20.650;2023-10-19T01:59:24;36.33;;;16.85;;
28766;SDS011;15921;52.034;20.650;2023-10-19T02:01:52;36.05;;;16.50;;
28766;SDS011;15921;52.034;20.650;2023-10-19T02:04:20;34.67;;;16.60;;
28766;SDS011;15921;52.034;20.650;2023-10-19T02:06:46;36.13;;;15.48;;
28766;SDS011;15921;52.034;20.650;2023-10-19T02:09:14;31.67;;;15.70;;
28766;SDS011;15921;52.034;20.650;2023-10-19T02:11:55;30.48;;;14.63;;
28766;SDS011;15921;52.034;20.650;2023-10-19T02:14:22;35.90;;;15.57;;
28766;SDS011;15921;52.034;20.650;2023-10-19T02:16:52;36.67;;;15.52;;
28766;SDS011;15921;52.034;20.650;2023-10-19T02:19:22;37.30;;;15.68;;
28766;SDS011;15921;52.034;20.650;2023-10-19T02:21:51;37.67;;;16.58;;
28766;SDS011;15921;52.034;20.650;2023-10-19T02:24:23;32.42;;;14.80;;
28766;SDS011;15921;52.034;20.650;2023-10-19T02:26:51;35.08;;;15.75;;
28766;SDS011;15921;52.034;20.650;2023-10-19T02:29:19;37.17;;;15.52;;
28766;SDS011;15921;52.034;20.650;2023-10-19T02:31:45;35.38;;;15.18;;
28766;SDS011;15921;52.034;20.650;2023-10-19T02:34:12;33.58;;;14.73;;
28766;SDS011;15921;52.034;20.650;2023-10-19T02:36:40;31.75;;;13.65;;
28766;SDS011;15921;52.034;20.650;2023-10-19T02:39:08;38.42;;;15.77;;
28766;SDS011;15921;52.034;20.650;2023-10-19T02:41:38;38.10;;;16.10;;
28766;SDS011;15921;52.034;20.650;2023-10-19T02:44:09;40.30;;;16.25;;
28766;SDS011;15921;52.034;20.650;2023-10-19T02:46:54;39.17;;;16.55;;
28766;SDS011;15921;52.034;20.650;2023-10-19T02:49:34;34.10;;;14.63;;
28766;SDS011;15921;52.034;20.650;2023-10-19T02:52:03;34.33;;;15.77;;
28766;SDS011;15921;52.034;20.650;2023-10-19T02:54:30;28.85;;;14.65;;
28766;SDS011;15921;52.034;20.650;2023-10-19T02:56:58;32.65;;;14.98;;
28766;SDS011;15921;52.034;20.650;2023-10-19T02:59:25;33.92;;;14.93;;
28766;SDS011;15921;52.034;20.650;2023-10-19T03:01:54;33.85;;;15.48;;
28766;SDS011;15921;52.034;20.650;2023-10-19T03:04:39;44.72;;;19.23;;
28766;SDS011;15921;52.034;20.650;2023-10-19T03:07:06;52.97;;;20.23;;
28766;SDS011;15921;52.034;20.650;2023-10-19T03:09:32;50.00;;;20.08;;
28766;SDS011;15921;52.034;20.650;2023-10-19T03:12:01;48.22;;;20.27;;
28766;SDS011;15921;52.034;20.650;2023-10-19T03:14:29;54.70;;;21.33;;
28766;SDS011;15921;52.034;20.650;2023-10-19T03:16:55;53.58;;;22.83;;
28766;SDS011;15921;52.034;20.650;2023-10-19T03:19:22;50.85;;;20.98;;
28766;SDS011;15921;52.034;20.650;2023-10-19T03:21:50;46.05;;;20.25;;
28766;SDS011;15921;52.034;20.650;2023-10-19T03:24:16;44.97;;;18.02;;
28766;SDS011;15921;52.034;20.650;2023-10-19T03:27:00;40.05;;;18.48;;
28766;SDS011;15921;52.034;20.650;2023-10-19T03:29:39;51.53;;;23.88;;
28766;SDS011;15921;52.034;20.650;2023-10-19T03:32:10;45.17;;;20.27;;
28766;SDS011;15921;52.034;20.650;2023-10-19T03:34:37;44.17;;;20.42;;
28766;SDS011;15921;52.034;20.650;2023-10-19T03:37:03;41.60;;;18.42;;
28766;SDS011;15921;52.034;20.650;2023-10-19T03:39:37;45.75;;;22.13;;
28766;SDS011;15921;52.034;20.650;2023-10-19T03:42:03;50.42;;;23.48;;
28766;SDS011;15921;52.034;20.650;2023-10-19T03:44:33;56.05;;;23.92;;
28766;SDS011;15921;52.034;20.650;2023-10-19T03:47:05;53.90;;;24.75;;
28766;SDS011;15921;52.034;20.650;2023-10-19T03:49:36;54.78;;;25.08;;
28766;SDS011;15921;52.034;20.650;2023-10-19T03:52:04;58.40;;;26.13;;
28766;SDS011;15921;52.034;20.650;2023-10-19T03:54:33;49.95;;;21.67;;
28766;SDS011;15921;52.034;20.650;2023-10-19T03:57:03;58.33;;;26.33;;
28766;SDS011;15921;52.034;20.650;2023-10-19T03:59:31;52.78;;;21.42;;
28766;SDS011;15921;52.034;20.650;2023-10-19T04:01:59;57.78;;;24.85;;
28766;SDS011;15921;52.034;20.650;2023-10-19T04:04:25;55.40;;;26.85;;
28766;SDS011;15921;52.034;20.650;2023-10-19T04:06:54;56.25;;;26.30;;
28766;SDS011;15921;52.034;20.650;2023-10-19T04:09:24;53.35;;;24.17;;
28766;SDS011;15921;52.034;20.650;2023-10-19T04:11:55;52.15;;;24.55;;
28766;SDS011;15921;52.034;20.650;2023-10-19T04:14:21;52.88;;;24.33;;
28766;SDS011;15921;52.034;20.650;2023-10-19T04:16:47;57.80;;;25.40;;
28766;SDS011;15921;52.034;20.650;2023-10-19T04:19:14;51.42;;;22.38;;
28766;SDS011;15921;52.034;20.650;2023-10-19T04:21:40;53.63;;;24.35;;
28766;SDS011;15921;52.034;20.650;2023-10-19T04:24:11;57.90;;;26.00;;
28766;SDS011;15921;52.034;20.650;2023-10-19T04:26:38;50.10;;;23.77;;
28766;SDS011;15921;52.034;20.650;2023-10-19T04:29:04;55.85;;;24.10;;
28766;SDS011;15921;52.034;20.650;2023-10-19T04:34:06;50.10;;;23.27;;
28766;SDS011;15921;52.034;20.650;2023-10-19T04:36:35;56.15;;;24.60;;
28766;SDS011;15921;52.034;20.650;2023-10-19T04:39:00;49.83;;;23.55;;
28766;SDS011;15921;52.034;20.650;2023-10-19T04:41:27;49.97;;;23.77;;
28766;SDS011;15921;52.034;20.650;2023-10-19T04:43:53;56.17;;;24.13;;
28766;SDS011;15921;52.034;20.650;2023-10-19T04:46:19;59.78;;;25.63;;
28766;SDS011;15921;52.034;20.650;2023-10-19T04:48:46;66.18;;;25.58;;
28766;SDS011;15921;52.034;20.650;2023-10-19T04:51:11;58.30;;;25.60;;
28766;SDS011;15921;52.034;20.650;2023-10-19T04:53:37;66.68;;;28.30;;
28766;SDS011;15921;52.034;20.650;2023-10-19T04:56:04;59.20;;;27.98;;
28766;SDS011;15921;52.034;20.650;2023-10-19T04:58:31;65.20;;;29.33;;
28766;SDS011;15921;52.034;20.650;2023-10-19T05:00:58;67.13;;;28.42;;
28766;SDS011;15921;52.034;20.650;2023-10-19T05:03:25;62.53;;;28.60;;
28766;SDS011;15921;52.034;20.650;2023-10-19T05:05:51;64.70;;;30.50;;
28766;SDS011;15921;52.034;20.650;2023-10-19T05:08:16;65.28;;;30.58;;
28766;SDS011;15921;52.034;20.650;2023-10-19T05:10:42;65.43;;;31.85;;
28766;SDS011;15921;52.034;20.650;2023-10-19T05:13:08;68.68;;;34.63;;
28766;SDS011;15921;52.034;20.650;2023-10-19T05:15:34;71.38;;;32.33;;
28766;SDS011;15921;52.034;20.650;2023-10-19T05:18:00;68.20;;;32.80;;
28766;SDS011;15921;52.034;20.650;2023-10-19T05:20:26;70.43;;;32.92;;
28766;SDS011;15921;52.034;20.650;2023-10-19T05:22:51;77.28;;;36.45;;
28766;SDS011;15921;52.034;20.650;2023-10-19T05:25:17;69.82;;;33.85;;
28766;SDS011;15921;52.034;20.650;2023-10-19T05:27:42;81.65;;;37.25;;
28766;SDS011;15921;52.034;20.650;2023-10-19T05:30:10;81.05;;;36.40;;
28766;SDS011;15921;52.034;20.650;2023-10-19T05:32:37;79.65;;;38.25;;
28766;SDS011;15921;52.034;20.650;2023-10-19T05:35:03;86.82;;;39.15;;
28766;SDS011;15921;52.034;20.650;2023-10-19T05:37:30;92.47;;;41.40;;
28766;SDS011;15921;52.034;20.650;2023-10-19T05:39:56;84.10;;;39.33;;
28766;SDS011;15921;52.034;20.650;2023-10-19T05:42:22;83.00;;;40.70;;
28766;SDS011;15921;52.034;20.650;2023-10-19T05:44:48;81.20;;;39.13;;
28766;SDS011;15921;52.034;20.650;2023-10-19T05:47:14;89.30;;;39.80;;
28766;SDS011;15921;52.034;20.650;2023-10-19T05:49:39;88.85;;;42.58;;
28766;SDS011;15921;52.034;20.650;2023-10-19T05:52:05;96.28;;;42.08;;
28766;SDS011;15921;52.034;20.650;2023-10-19T05:54:30;99.00;;;45.38;;
28766;SDS011;15921;52.034;20.650;2023-10-19T05:56:56;80.75;;;39.13;;
28766;SDS011;15921;52.034;20.650;2023-10-19T05:59:23;99.22;;;41.47;;
28766;SDS011;15921;52.034;20.650;2023-10-19T06:01:51;79.88;;;38.38;;
28766;SDS011;15921;52.034;20.650;2023-10-19T06:04:17;95.90;;;43.08;;
28766;SDS011;15921;52.034;20.650;2023-10-19T06:06:43;97.45;;;43.45;;
28766;SDS011;15921;52.034;20.650;2023-10-19T06:09:09;105.57;;;44.88;;
28766;SDS011;15921;52.034;20.650;2023-10-19T06:11:35;103.03;;;46.42;;
28766;SDS011;15921;52.034;20.650;2023-10-19T06:14:03;88.95;;;43.15;;
28766;SDS011;15921;52.034;20.650;2023-10-19T06:16:32;91.55;;;42.13;;
28766;SDS011;15921;52.034;20.650;2023-10-19T06:18:59;89.43;;;42.85;;
28766;SDS011;15921;52.034;20.650;2023-10-19T06:21:25;84.85;;;41.95;;
28766;SDS011;15921;52.034;20.650;2023-10-19T06:23:51;92.60;;;43.50;;
28766;SDS011;15921;52.034;20.650;2023-10-19T06:26:18;93.05;;;44.42;;
28766;SDS011;15921;52.034;20.650;2023-10-19T06:28:44;94.85;;;44.50;;
28766;SDS011;15921;52.034;20.650;2023-10-19T06:31:10;86.90;;;41.72;;
28766;SDS011;15921;52.034;20.650;2023-10-19T06:33:35;81.18;;;40.17;;
28766;SDS011;15921;52.034;20.650;2023-10-19T06:36:06;90.82;;;40.40;;
28766;SDS011;15921;52.034;20.650;2023-10-19T06:38:32;86.43;;;41.22;;
28766;SDS011;15921;52.034;20.650;2023-10-19T06:40:59;92.88;;;42.88;;
28766;SDS011;15921;52.034;20.650;2023-10-19T06:43:27;80.03;;;38.17;;
28766;SDS011;15921;52.034;20.650;2023-10-19T06:45:55;84.93;;;40.10;;
28766;SDS011;15921;52.034;20.650;2023-10-19T06:48:21;81.93;;;36.38;;
28766;SDS011;15921;52.034;20.650;2023-10-19T06:50:47;82.65;;;40.78;;
28766;SDS011;15921;52.034;20.650;2023-10-19T06:53:13;76.63;;;38.67;;
28766;SDS011;15921;52.034;20.650;2023-10-19T06:55:38;89.90;;;38.55;;
28766;SDS011;15921;52.034;20.650;2023-10-19T06:58:05;80.13;;;37.65;;
28766;SDS011;15921;52.034;20.650;2023-10-19T07:00:31;80.72;;;35.95;;
28766;SDS011;15921;52.034;20.650;2023-10-19T07:02:58;93.25;;;39.58;;
28766;SDS011;15921;52.034;20.650;2023-10-19T07:05:28;73.65;;;34.13;;
28766;SDS011;15921;52.034;20.650;2023-10-19T07:07:57;66.20;;;32.20;;
28766;SDS011;15921;52.034;20.650;2023-10-19T07:10:24;69.05;;;32.90;;
28766;SDS011;15921;52.034;20.650;2023-10-19T07:12:52;69.97;;;33.95;;
28766;SDS011;15921;52.034;20.650;2023-10-19T07:15:20;71.80;;;32.70;;
28766;SDS011;15921;52.034;20.650;2023-10-19T07:17:47;71.22;;;32.97;;
28766;SDS011;15921;52.034;20.650;2023-10-19T07:20:19;64.60;;;31.65;;
28766;SDS011;15921;52.034;20.650;2023-10-19T07:22:57;60.38;;;29.85;;
28766;SDS011;15921;52.034;20.650;2023-10-19T07:25:43;68.00;;;31.50;;
28766;SDS011;15921;52.034;20.650;2023-10-19T07:28:09;65.68;;;32.78;;
28766;SDS011;15921;52.034;20.650;2023-10-19T07:30:37;56.70;;;29.00;;
28766;SDS011;15921;52.034;20.650;2023-10-19T07:33:03;62.63;;;33.25;;
28766;SDS011;15921;52.034;20.650;2023-10-19T07:35:29;66.60;;;33.63;;
28766;SDS011;15921;52.034;20.650;2023-10-19T07:38:00;58.08;;;30.27;;
28766;SDS011;15921;52.034;20.650;2023-10-19T07:40:26;56.15;;;30.95;;
28766;SDS011;15921;52.034;20.650;2023-10-19T07:42:52;55.92;;;31.35;;
28766;SDS011;15921;52.034;20.650;2023-10-19T07:45:20;54.72;;;30.38;;
28766;SDS011;15921;52.034;20.650;2023-10-19T07:47:46;55.42;;;30.67;;
28766;SDS011;15921;52.034;20.650;2023-10-19T07:50:12;61.92;;;30.67;;
28766;SDS011;15921;52.034;20.650;2023-10-19T07:52:45;52.35;;;27.35;;
28766;SDS011;15921;52.034;20.650;2023-10-19T07:57:44;57.45;;;29.27;;
28766;SDS011;15921;52.034;20.650;2023-10-19T08:00:11;57.60;;;29.80;;
28766;SDS011;15921;52.034;20.650;2023-10-19T08:02:40;53.63;;;28.50;;
28766;SDS011;15921;52.034;20.650;2023-10-19T08:05:07;50.03;;;26.27;;
28766;SDS011;15921;52.034;20.650;2023-10-19T08:07:33;48.38;;;25.83;;
28766;SDS011;15921;52.034;20.650;2023-10-19T08:10:04;47.85;;;26.20;;
28766;SDS011;15921;52.034;20.650;2023-10-19T08:12:31;46.58;;;24.67;;
28766;SDS011;15921;52.034;20.650;2023-10-19T08:15:01;52.42;;;24.00;;
28766;SDS011;15921;52.034;20.650;2023-10-19T08:17:28;45.50;;;24.75;;
28766;SDS011;15921;52.034;20.650;2023-10-19T08:19:54;50.40;;;24.85;;
28766;SDS011;15921;52.034;20.650;2023-10-19T08:22:20;45.63;;;24.60;;
28766;SDS011;15921;52.034;20.650;2023-10-19T08:24:46;43.00;;;21.95;;
28766;SDS011;15921;52.034;20.650;2023-10-19T08:27:12;43.72;;;21.52;;
28766;SDS011;15921;52.034;20.650;2023-10-19T08:29:38;41.80;;;22.58;;
28766;SDS011;15921;52.034;20.650;2023-10-19T08:32:04;41.00;;;22.35;;
28766;SDS011;15921;52.034;20.650;2023-10-19T08:34:35;41.53;;;20.55;;
28766;SDS011;15921;52.034;20.650;2023-10-19T08:37:01;40.80;;;20.70;;
28766;SDS011;15921;52.034;20.650;2023-10-19T08:39:29;35.47;;;18.98;;
28766;SDS011;15921;52.034;20.650;2023-10-19T08:42:04;45.38;;;21.23;;
28766;SDS011;15921;52.034;20.650;2023-10-19T08:44:31;42.85;;;21.45;;
28766;SDS011;15921;52.034;20.650;2023-10-19T08:46:57;45.50;;;20.60;;
28766;SDS011;15921;52.034;20.650;2023-10-19T08:49:24;34.97;;;19.33;;
28766;SDS011;15921;52.034;20.650;2023-10-19T08:51:51;36.58;;;20.13;;
28766;SDS011;15921;52.034;20.650;2023-10-19T08:54:19;38.60;;;19.52;;
28766;SDS011;15921;52.034;20.650;2023-10-19T08:56:45;33.65;;;18.33;;
28766;SDS011;15921;52.034;20.650;2023-10-19T08:59:12;39.78;;;21.23;;
28766;SDS011;15921;52.034;20.650;2023-10-19T09:01:40;39.33;;;20.55;;
28766;SDS011;15921;52.034;20.650;2023-10-19T09:04:10;40.45;;;20.50;;
28766;SDS011;15921;52.034;20.650;2023-10-19T09:06:36;39.72;;;21.65;;
28766;SDS011;15921;52.034;20.650;2023-10-19T09:09:11;38.47;;;20.73;;
28766;SDS011;15921;52.034;20.650;2023-10-19T09:11:50;35.45;;;19.00;;
28766;SDS011;15921;52.034;20.650;2023-10-19T09:14:31;35.80;;;19.38;;
28766;SDS011;15921;52.034;20.650;2023-10-19T09:16:58;35.65;;;19.48;;
28766;SDS011;15921;52.034;20.650;2023-10-19T09:19:35;37.90;;;19.33;;
28766;SDS011;15921;52.034;20.650;2023-10-19T09:22:02;34.38;;;18.33;;
28766;SDS011;15921;52.034;20.650;2023-10-19T09:24:33;38.45;;;19.33;;
28766;SDS011;15921;52.034;20.650;2023-10-19T09:27:03;35.50;;;16.92;;
28766;SDS011;15921;52.034;20.650;2023-10-19T09:29:29;34.95;;;18.23;;
28766;SDS011;15921;52.034;20.650;2023-10-19T09:31:57;31.48;;;16.65;;
28766;SDS011;15921;52.034;20.650;2023-10-19T09:34:27;37.47;;;17.20;;
28766;SDS011;15921;52.034;20.650;2023-10-19T09:36:57;32.22;;;16.92;;
28766;SDS011;15921;52.034;20.650;2023-10-19T09:39:28;31.75;;;16.85;;
28766;SDS011;15921;52.034;20.650;2023-10-19T09:42:09;44.53;;;19.60;;
28766;SDS011;15921;52.034;20.650;2023-10-19T09:44:40;29.48;;;16.10;;
28766;SDS011;15921;52.034;20.650;2023-10-19T09:47:09;32.17;;;17.83;;
28766;SDS011;15921;52.034;20.650;2023-10-19T09:49:38;31.45;;;16.33;;
28766;SDS011;15921;52.034;20.650;2023-10-19T09:52:04;31.70;;;17.05;;
28766;SDS011;15921;52.034;20.650;2023-10-19T09:54:34;30.35;;;17.27;;
28766;SDS011;15921;52.034;20.650;2023-10-19T10:00:18;33.05;;;17.58;;
28766;SDS011;15921;52.034;20.650;2023-10-19T10:02:51;35.13;;;19.45;;
28766;SDS011;15921;52.034;20.650;2023-10-19T10:10:43;37.33;;;18.23;;
28766;SDS011;15921;52.034;20.650;2023-10-19T10:15:55;34.95;;;18.75;;
28766;SDS011;15921;52.034;20.650;2023-10-19T10:18:25;35.88;;;18.75;;
28766;SDS011;15921;52.034;20.650;2023-10-19T10:21:12;36.45;;;18.05;;
28766;SDS011;15921;52.034;20.650;2023-10-19T10:26:15;39.25;;;19.88;;
28766;SDS011;15921;52.034;20.650;2023-10-19T10:28:45;40.63;;;20.30;;
28766;SDS011;15921;52.034;20.650;2023-10-19T10:31:19;44.45;;;24.27;;
28766;SDS011;15921;52.034;20.650;2023-10-19T10:33:52;36.63;;;18.58;;
28766;SDS011;15921;52.034;20.650;2023-10-19T10:36:22;32.75;;;17.63;;
28766;SDS011;15921;52.034;20.650;2023-10-19T10:38:49;29.33;;;16.02;;
28766;SDS011;15921;52.034;20.650;2023-10-19T10:41:22;29.42;;;14.63;;
28766;SDS011;15921;52.034;20.650;2023-10-19T10:43:57;30.75;;;15.70;;
28766;SDS011;15921;52.034;20.650;2023-10-19T10:46:27;32.42;;;16.95;;
28766;SDS011;15921;52.034;20.650;2023-10-19T10:48:54;31.60;;;16.25;;
28766;SDS011;15921;52.034;20.650;2023-10-19T10:51:21;31.42;;;15.73;;
28766;SDS011;15921;52.034;20.650;2023-10-19T10:53:51;33.40;;;15.63;;
28766;SDS011;15921;52.034;20.650;2023-10-19T10:56:18;33.38;;;16.08;;
28766;SDS011;15921;52.034;20.650;2023-10-19T10:58:45;28.73;;;15.75;;
28766;SDS011;15921;52.034;20.650;2023-10-19T11:01:11;27.95;;;15.85;;
28766;SDS011;15921;52.034;20.650;2023-10-19T11:03:38;29.42;;;16.52;;
28766;SDS011;15921;52.034;20.650;2023-10-19T11:06:05;30.27;;;16.80;;
28766;SDS011;15921;52.034;20.650;2023-10-19T11:08:37;28.45;;;15.73;;
28766;SDS011;15921;52.034;20.650;2023-10-19T11:11:07;25.02;;;14.30;;
28766;SDS011;15921;52.034;20.650;2023-10-19T11:13:37;27.13;;;15.25;;
28766;SDS011;15921;52.034;20.650;2023-10-19T11:16:05;29.13;;;15.23;;
28766;SDS011;15921;52.034;20.650;2023-10-19T11:18:35;27.77;;;15.32;;
28766;SDS011;15921;52.034;20.650;2023-10-19T11:21:06;36.92;;;16.15;;
28766;SDS011;15921;52.034;20.650;2023-10-19T11:23:35;27.42;;;14.55;;
28766;SDS011;15921;52.034;20.650;2023-10-19T11:26:03;34.35;;;15.73;;
28766;SDS011;15921;52.034;20.650;2023-10-19T11:28:30;36.03;;;16.35;;
28766;SDS011;15921;52.034;20.650;2023-10-19T11:33:43;26.73;;;14.77;;
28766;SDS011;15921;52.034;20.650;2023-10-19T11:36:15;26.30;;;13.82;;
28766;SDS011;15921;52.034;20.650;2023-10-19T11:38:43;24.25;;;14.20;;
28766;SDS011;15921;52.034;20.650;2023-10-19T11:41:11;25.33;;;12.57;;
28766;SDS011;15921;52.034;20.650;2023-10-19T11:43:38;28.58;;;13.82;;
28766;SDS011;15921;52.034;20.650;2023-10-19T11:46:09;28.63;;;14.98;;
28766;SDS011;15921;52.034;20.650;2023-10-19T11:48:37;23.50;;;12.98;;
28766;SDS011;15921;52.034;20.650;2023-10-19T11:51:05;30.77;;;15.60;;
28766;SDS011;15921;52.034;20.650;2023-10-19T11:53:35;27.20;;;14.60;;
28766;SDS011;15921;52.034;20.650;2023-10-19T11:56:10;27.60;;;14.40;;
28766;SDS011;15921;52.034;20.650;2023-10-19T11:58:41;29.48;;;13.88;;
28766;SDS011;15921;52.034;20.650;2023-10-19T12:01:08;28.83;;;14.70;;
28766;SDS011;15921;52.034;20.650;2023-10-19T12:03:37;36.40;;;15.20;;
28766;SDS011;15921;52.034;20.650;2023-10-19T12:06:09;30.67;;;15.25;;
28766;SDS011;15921;52.034;20.650;2023-10-19T12:08:35;27.48;;;13.52;;
28766;SDS011;15921;52.034;20.650;2023-10-19T12:11:02;25.48;;;14.02;;
28766;SDS011;15921;52.034;20.650;2023-10-19T12:13:29;28.27;;;14.88;;
28766;SDS011;15921;52.034;20.650;2023-10-19T12:15:56;26.30;;;14.05;;
28766;SDS011;15921;52.034;20.650;2023-10-19T12:18:23;27.65;;;14.20;;
28766;SDS011;15921;52.034;20.650;2023-10-19T12:20:51;26.45;;;14.05;;
28766;SDS011;15921;52.034;20.650;2023-10-19T12:23:21;29.67;;;13.63;;
28766;SDS011;15921;52.034;20.650;2023-10-19T12:25:48;27.77;;;14.60;;
28766;SDS011;15921;52.034;20.650;2023-10-19T12:28:14;27.60;;;14.27;;
28766;SDS011;15921;52.034;20.650;2023-10-19T12:30:41;29.33;;;15.10;;
28766;SDS011;15921;52.034;20.650;2023-10-19T12:33:07;29.05;;;15.07;;
28766;SDS011;15921;52.034;20.650;2023-10-19T12:35:42;29.25;;;14.77;;
28766;SDS011;15921;52.034;20.650;2023-10-19T12:38:18;31.03;;;15.30;;
28766;SDS011;15921;52.034;20.650;2023-10-19T12:40:45;30.08;;;17.35;;
28766;SDS011;15921;52.034;20.650;2023-10-19T12:43:13;31.90;;;16.05;;
28766;SDS011;15921;52.034;20.650;2023-10-19T12:45:39;37.03;;;18.60;;
28766;SDS011;15921;52.034;20.650;2023-10-19T12:48:06;38.05;;;20.45;;
28766;SDS011;15921;52.034;20.650;2023-10-19T12:50:35;54.78;;;24.08;;
28766;SDS011;15921;52.034;20.650;2023-10-19T12:53:01;57.70;;;24.52;;
28766;SDS011;15921;52.034;20.650;2023-10-19T12:55:27;52.83;;;23.67;;
28766;SDS011;15921;52.034;20.650;2023-10-19T12:57:53;73.63;;;28.05;;
28766;SDS011;15921;52.034;20.650;2023-10-19T13:00:21;65.38;;;28.17;;
28766;SDS011;15921;52.034;20.650;2023-10-19T13:03:01;44.92;;;22.80;;
28766;SDS011;15921;52.034;20.650;2023-10-19T13:05:35;43.53;;;20.67;;
28766;SDS011;15921;52.034;20.650;2023-10-19T13:08:02;55.35;;;24.30;;
28766;SDS011;15921;52.034;20.650;2023-10-19T13:10:38;62.13;;;27.52;;
28766;SDS011;15921;52.034;20.650;2023-10-19T13:13:07;81.38;;;32.55;;
28766;SDS011;15921;52.034;20.650;2023-10-19T13:15:37;72.00;;;30.08;;
28766;SDS011;15921;52.034;20.650;2023-10-19T13:18:04;83.22;;;34.00;;
28766;SDS011;15921;52.034;20.650;2023-10-19T13:20:32;82.90;;;31.98;;
28766;SDS011;15921;52.034;20.650;2023-10-19T13:23:03;95.18;;;37.33;;
28766;SDS011;15921;52.034;20.650;2023-10-19T13:25:30;76.63;;;32.65;;
28766;SDS011;15921;52.034;20.650;2023-10-19T13:28:14;71.70;;;29.98;;
28766;SDS011;15921;52.034;20.650;2023-10-19T13:30:41;85.35;;;35.60;;
28766;SDS011;15921;52.034;20.650;2023-10-19T13:33:09;82.05;;;36.30;;
28766;SDS011;15921;52.034;20.650;2023-10-19T13:35:38;83.80;;;35.92;;
28766;SDS011;15921;52.034;20.650;2023-10-19T13:38:05;70.22;;;32.47;;
28766;SDS011;15921;52.034;20.650;2023-10-19T13:40:33;57.35;;;27.70;;
28766;SDS011;15921;52.034;20.650;2023-10-19T13:42:59;59.38;;;28.25;;
28766;SDS011;15921;52.034;20.650;2023-10-19T13:45:25;47.83;;;23.52;;
28766;SDS011;15921;52.034;20.650;2023-10-19T13:47:52;42.13;;;20.38;;
28766;SDS011;15921;52.034;20.650;2023-10-19T13:50:21;35.38;;;17.27;;
28766;SDS011;15921;52.034;20.650;2023-10-19T13:52:52;40.22;;;17.08;;
28766;SDS011;15921;52.034;20.650;2023-10-19T13:55:19;31.77;;;18.08;;
28766;SDS011;15921;52.034;20.650;2023-10-19T13:57:48;34.35;;;18.48;;
28766;SDS011;15921;52.034;20.650;2023-10-19T14:00:15;27.85;;;16.48;;
28766;SDS011;15921;52.034;20.650;2023-10-19T14:03:08;32.08;;;16.75;;
28766;SDS011;15921;52.034;20.650;2023-10-19T14:05:36;30.13;;;15.90;;
28766;SDS011;15921;52.034;20.650;2023-10-19T14:08:03;28.25;;;14.57;;
28766;SDS011;15921;52.034;20.650;2023-10-19T14:10:30;34.00;;;15.88;;
28766;SDS011;15921;52.034;20.650;2023-10-19T14:12:58;54.03;;;17.38;;
28766;SDS011;15921;52.034;20.650;2023-10-19T14:15:24;33.67;;;15.27;;
28766;SDS011;15921;52.034;20.650;2023-10-19T14:17:50;33.70;;;15.20;;
28766;SDS011;15921;52.034;20.650;2023-10-19T14:20:16;28.05;;;14.95;;
28766;SDS011;15921;52.034;20.650;2023-10-19T14:22:44;27.58;;;14.60;;
28766;SDS011;15921;52.034;20.650;2023-10-19T14:25:11;27.60;;;14.70;;
28766;SDS011;15921;52.034;20.650;2023-10-19T14:27:42;28.58;;;14.43;;
28766;SDS011;15921;52.034;20.650;2023-10-19T14:30:09;26.77;;;13.95;;
28766;SDS011;15921;52.034;20.650;2023-10-19T14:32:47;26.98;;;14.60;;
28766;SDS011;15921;52.034;20.650;2023-10-19T14:35:18;30.02;;;15.52;;
28766;SDS011;15921;52.034;20.650;2023-10-19T14:37:51;35.10;;;17.13;;
28766;SDS011;15921;52.034;20.650;2023-10-19T14:40:25;28.35;;;14.77;;
28766;SDS011;15921;52.034;20.650;2023-10-19T14:42:52;31.05;;;16.15;;
28766;SDS011;15921;52.034;20.650;2023-10-19T14:45:19;30.83;;;15.13;;